»·PEaware :: N900TB KGPI-KBFI

N900TB :: KGPI-KBFI

FLIGHT INFORMATION

Flight Status: Arrived
Operator: Privately registered:
United States
More flights under this callsign
Pilot: Saso K. (7898)
Aircraft: SOCATA TBM-900
(TBM9)
More flights by this aircraft type
Origin: KGPI Glacier Park Intl
United States
Destination: KBFI Boeing Field/King Co Intl
United States
More flights between these airports :: More routes between these airports
Route: +SKOTT2 SKOTT V231 CHARL V120 MLP GLASR1
File this flight plan on PilotEdge
Remarks:
Altitude:
(Current/Filed)
24,000ft
Speed:
(Current/Filed)
320kts
Departed: 24-Mar-18 08:51 AM
Arrived: 24-Mar-18 10:32 AM
Distance/Time
Traveled:
327nm/1:40
Distance/Time
To Go:
Arrived

Flight Plot

Page will automatically refresh every two minutes.

Flight plan parsing failed; only flown route is shown


Map Options




Map Legend


Flown Route
Filed Route
Departure Airport
Arrival Airport
Navaid (VOR, NDB)
Fix

Horizontal Profiles

Position Reports

Time Latitude Longitude Heading Altitude Ground
Speed
24-Mar-18 08:18 48.310665 -114.250748 178 2967ft 0kts
24-Mar-18 08:19 48.310665 -114.250748 178 2967ft 0kts
24-Mar-18 08:20 48.310665 -114.250748 178 2967ft 0kts
24-Mar-18 08:21 48.310665 -114.250748 178 2967ft 0kts
24-Mar-18 08:22 48.310665 -114.250748 179 2967ft 0kts
24-Mar-18 08:23 48.310665 -114.250748 179 2967ft 0kts
24-Mar-18 08:24 48.310665 -114.250748 179 2967ft 0kts
24-Mar-18 08:25 48.310665 -114.250748 179 2967ft 0kts
24-Mar-18 08:26 48.310665 -114.250748 178 2967ft 0kts
24-Mar-18 08:27 48.310665 -114.250748 178 2967ft 0kts
24-Mar-18 08:28 48.310665 -114.250748 178 2967ft 0kts
24-Mar-18 08:29 48.310665 -114.250748 178 2967ft 0kts
24-Mar-18 08:30 48.310665 -114.250748 178 2967ft 0kts
24-Mar-18 08:31 48.310665 -114.250748 178 2967ft 0kts
24-Mar-18 08:32 48.310665 -114.250748 178 2967ft 0kts
24-Mar-18 08:33 48.310665 -114.250748 178 2967ft 0kts
24-Mar-18 08:34 48.310665 -114.250748 178 2967ft 0kts
24-Mar-18 08:35 48.310665 -114.250748 178 2967ft 0kts
24-Mar-18 08:36 48.310665 -114.250748 178 2967ft 0kts
24-Mar-18 08:37 48.310665 -114.250748 178 2967ft 0kts
24-Mar-18 08:38 48.310665 -114.250748 178 2967ft 0kts
24-Mar-18 08:39 48.310665 -114.250748 178 2967ft 0kts
24-Mar-18 08:40 48.310665 -114.250748 178 2967ft 0kts
24-Mar-18 08:41 48.310665 -114.250748 178 2967ft 0kts
24-Mar-18 08:42 48.310311 -114.251387 246 2966ft 0kts
24-Mar-18 08:43 48.310281 -114.251546 263 2966ft 4kts
24-Mar-18 08:44 48.308884 -114.255115 215 2966ft 17kts
24-Mar-18 08:45 48.303813 -114.260414 220 2962ft 26kts
24-Mar-18 08:46 48.298402 -114.266486 276 2959ft 0kts
24-Mar-18 08:47 48.298402 -114.266486 276 2959ft 0kts
24-Mar-18 08:48 48.299139 -114.267368 32 2959ft 0kts
24-Mar-18 08:49 48.299720 -114.266767 35 2959ft 38kts
24-Mar-18 08:50 48.324402 -114.250565 319 4295ft 116kts
24-Mar-18 08:51 48.305105 -114.268043 149 6228ft 153kts
24-Mar-18 08:52 48.270168 -114.230347 153 8199ft 156kts
24-Mar-18 08:53 48.234444 -114.192973 155 10129ft 169kts
24-Mar-18 08:54 48.191482 -114.173459 184 11968ft 158kts
24-Mar-18 08:55 48.149528 -114.170416 185 14089ft 153kts
24-Mar-18 08:56 48.107343 -114.167410 186 16063ft 153kts
24-Mar-18 08:57 48.064784 -114.164386 187 17984ft 155kts
24-Mar-18 08:58 48.022012 -114.161361 187 19818ft 158kts
24-Mar-18 08:59 47.978440 -114.158277 188 21652ft 159kts
24-Mar-18 09:00 47.932376 -114.155201 187 22765ft 186kts
24-Mar-18 09:01 47.876292 -114.151561 186 22770ft 228kts
24-Mar-18 09:02 47.811010 -114.147109 185 22760ft 245kts
24-Mar-18 09:03 47.763229 -114.193895 246 22773ft 245kts
24-Mar-18 09:04 47.745913 -114.279390 246 22772ft 247kts
24-Mar-18 09:05 47.727495 -114.370199 246 23696ft 225kts
24-Mar-18 09:06 47.709281 -114.458896 246 23747ft 238kts
24-Mar-18 09:07 47.689967 -114.552527 246 23744ft 244kts
24-Mar-18 09:08 47.670021 -114.648668 246 23743ft 247kts
24-Mar-18 09:09 47.650183 -114.743663 245 23753ft 249kts
24-Mar-18 09:10 47.629882 -114.840481 245 23751ft 250kts
24-Mar-18 09:11 47.609989 -114.934909 245 23747ft 249kts
24-Mar-18 09:12 47.589947 -115.029330 246 23744ft 249kts
24-Mar-18 09:13 47.569981 -115.122917 247 23743ft 251kts
24-Mar-18 09:14 47.549529 -115.218415 248 23744ft 254kts
24-Mar-18 09:15 47.528903 -115.314654 248 23761ft 255kts
24-Mar-18 09:16 47.508080 -115.411338 248 23778ft 255kts
24-Mar-18 09:17 47.486993 -115.508775 248 23789ft 255kts
24-Mar-18 09:18 47.465391 -115.608049 248 23801ft 256kts
24-Mar-18 09:19 47.461888 -115.709514 267 23820ft 267kts
24-Mar-18 09:20 47.468398 -115.816904 267 23818ft 268kts
24-Mar-18 09:21 47.474819 -115.923883 267 23817ft 268kts
24-Mar-18 09:22 47.481056 -116.028871 267 23816ft 268kts
24-Mar-18 09:23 47.487053 -116.131098 267 23815ft 268kts
24-Mar-18 09:24 47.493083 -116.235179 267 23815ft 268kts
24-Mar-18 09:25 47.499091 -116.340318 267 23814ft 268kts
24-Mar-18 09:26 47.504959 -116.444175 267 23813ft 268kts
24-Mar-18 09:27 47.510786 -116.549181 267 23813ft 268kts
24-Mar-18 09:28 47.516661 -116.656941 266 23815ft 268kts
24-Mar-18 09:29 47.522168 -116.759736 267 23819ft 269kts
24-Mar-18 09:30 47.527867 -116.867715 267 23818ft 269kts
24-Mar-18 09:31 47.533478 -116.976392 267 23813ft 271kts
24-Mar-18 09:32 47.539082 -117.087464 267 23809ft 277kts
24-Mar-18 09:33 47.544742 -117.201286 268 23808ft 282kts
24-Mar-18 09:34 47.550282 -117.314062 268 23807ft 284kts
24-Mar-18 09:35 47.555833 -117.429434 268 23803ft 285kts
24-Mar-18 09:36 47.561270 -117.544843 268 23793ft 285kts
24-Mar-18 09:37 47.568250 -117.658330 271 23790ft 287kts
24-Mar-18 09:38 47.579153 -117.771754 271 23791ft 288kts
24-Mar-18 09:39 47.590189 -117.887665 271 23790ft 288kts
24-Mar-18 09:40 47.601159 -118.004151 271 23790ft 288kts
24-Mar-18 09:41 47.611843 -118.118853 271 23790ft 288kts
24-Mar-18 09:42 47.622435 -118.233831 271 23789ft 288kts
24-Mar-18 09:43 47.632878 -118.348442 271 23790ft 287kts
24-Mar-18 09:44 47.643127 -118.462164 271 23803ft 287kts
24-Mar-18 09:45 47.651725 -118.558569 271 23813ft 287kts
24-Mar-18 09:46 47.663419 -118.691224 270 23819ft 287kts
24-Mar-18 09:47 47.671750 -118.786839 271 23819ft 287kts
24-Mar-18 09:48 47.683319 -118.922798 272 23818ft 287kts
24-Mar-18 09:49 47.691399 -119.019063 274 23817ft 286kts
24-Mar-18 09:50 47.702670 -119.153515 274 23813ft 287kts
24-Mar-18 09:51 47.710529 -119.248196 274 23809ft 287kts
24-Mar-18 09:52 47.721182 -119.378224 274 23807ft 287kts
24-Mar-18 09:53 47.729005 -119.474979 274 23806ft 287kts
24-Mar-18 09:54 47.738146 -119.589433 274 23806ft 287kts
24-Mar-18 09:55 47.746706 -119.698314 273 23809ft 287kts
24-Mar-18 09:56 47.755371 -119.809599 273 23810ft 287kts
24-Mar-18 09:57 47.763929 -119.920255 274 23814ft 287kts
24-Mar-18 09:58 47.772529 -120.031315 273 23817ft 287kts
24-Mar-18 09:59 47.781197 -120.145663 273 23817ft 287kts
24-Mar-18 10:00 47.789377 -120.255273 273 23816ft 287kts
24-Mar-18 10:01 47.797539 -120.366307 273 23816ft 287kts
24-Mar-18 10:02 47.805418 -120.475077 273 23816ft 287kts
24-Mar-18 10:03 47.813337 -120.586015 273 23815ft 287kts
24-Mar-18 10:04 47.821299 -120.699032 273 23819ft 287kts
24-Mar-18 10:05 47.828141 -120.799364 274 23836ft 284kts
24-Mar-18 10:06 47.836380 -120.919928 275 22101ft 295kts
24-Mar-18 10:07 47.844398 -121.039301 275 19708ft 290kts
24-Mar-18 10:08 47.852384 -121.159290 275 17941ft 287kts
24-Mar-18 10:09 47.859952 -121.276032 274 16973ft 273kts
24-Mar-18 10:10 47.867140 -121.389197 274 15921ft 279kts
24-Mar-18 10:11 47.874505 -121.507005 274 14157ft 292kts
24-Mar-18 10:12 47.881838 -121.626466 274 12489ft 289kts
24-Mar-18 10:13 47.866583 -121.724100 224 12007ft 264kts
24-Mar-18 10:14 47.821452 -121.808952 264 10994ft 275kts
24-Mar-18 10:15 47.836634 -121.909359 315 10223ft 270kts
24-Mar-18 10:16 47.868157 -121.999275 265 8453ft 260kts
24-Mar-18 10:17 47.864665 -122.102867 265 6712ft 256kts
24-Mar-18 10:18 47.861502 -122.205142 265 4975ft 254kts
24-Mar-18 10:19 47.858621 -122.305608 265 3963ft 216kts
24-Mar-18 10:20 47.856488 -122.391161 265 3115ft 204kts
24-Mar-18 10:21 47.854427 -122.474951 265 2983ft 202kts
24-Mar-18 10:22 47.818689 -122.498906 175 2984ft 157kts
24-Mar-18 10:23 47.777400 -122.493356 175 2989ft 146kts
24-Mar-18 10:24 47.739424 -122.480722 152 2997ft 148kts
24-Mar-18 10:25 47.703018 -122.449777 153 3039ft 182kts
24-Mar-18 10:26 47.657888 -122.411845 152 2659ft 182kts
24-Mar-18 10:27 47.616306 -122.376629 152 1741ft 167kts
24-Mar-18 10:28 47.581062 -122.346189 150 948ft 131kts
24-Mar-18 10:29 47.556492 -122.324948 153 393ft 87kts
24-Mar-18 10:30 47.536185 -122.307680 154 17ft 71kts
24-Mar-18 10:31 47.530607 -122.301259 56 16ft 7kts
24-Mar-18 10:32 47.532942 -122.301969 333 18ft 21kts
24-Mar-18 10:33 47.538374 -122.306865 330 19ft 19kts
24-Mar-18 10:34 47.540949 -122.308420 238 19ft 0kts
24-Mar-18 10:35 47.540949 -122.308420 238 19ft 0kts
24-Mar-18 10:36 47.540949 -122.308420 238 19ft 0kts
24-Mar-18 10:37 47.540949 -122.308420 238 19ft 0kts
24-Mar-18 10:38 47.540949 -122.308420 238 19ft 0kts
24-Mar-18 10:39 47.540949 -122.308420 238 19ft 0kts
24-Mar-18 10:40 47.540949 -122.308420 238 19ft 0kts
24-Mar-18 10:41 47.540949 -122.308420 238 19ft 0kts
24-Mar-18 10:42 47.540949 -122.308420 238 19ft 0kts
24-Mar-18 10:43 47.540949 -122.308420 238 19ft 0kts
24-Mar-18 10:44 47.540949 -122.308420 238 19ft 0kts
24-Mar-18 10:45 47.540949 -122.308420 238 19ft 0kts

Navigation Log

Ident Type
Flight plan parsing failed, navigation log unavailable